sensor_id;sensor_type;location;lat;lon;timestamp;temperature;humidity
41262;DHT22;29629;52.532;13.352;2023-02-15T00:02:07;4.60;99.90
41262;DHT22;29629;52.532;13.352;2023-02-15T00:04:36;4.60;99.90
41262;DHT22;29629;52.532;13.352;2023-02-15T00:07:17;4.60;99.90
41262;DHT22;29629;52.532;13.352;2023-02-15T00:09:46;4.60;99.90
41262;DHT22;29629;52.532;13.352;2023-02-15T00:12:13;4.60;99.90
41262;DHT22;29629;52.532;13.352;2023-02-15T00:14:40;4.60;99.90
41262;DHT22;29629;52.532;13.352;2023-02-15T00:17:07;4.60;99.90
41262;DHT22;29629;52.532;13.352;2023-02-15T00:19:34;4.60;99.90
41262;DHT22;29629;52.532;13.352;2023-02-15T00:22:00;4.60;99.90
41262;DHT22;29629;52.532;13.352;2023-02-15T00:24:29;4.50;99.90
41262;DHT22;29629;52.532;13.352;2023-02-15T00:26:55;4.50;99.90
41262;DHT22;29629;52.532;13.352;2023-02-15T00:29:22;4.50;99.90
41262;DHT22;29629;52.532;13.352;2023-02-15T00:31:49;4.40;99.90
41262;DHT22;29629;52.532;13.352;2023-02-15T00:34:16;4.50;99.90
41262;DHT22;29629;52.532;13.352;2023-02-15T00:36:44;4.50;99.90
41262;DHT22;29629;52.532;13.352;2023-02-15T00:39:11;4.40;99.90
41262;DHT22;29629;52.532;13.352;2023-02-15T00:41:39;4.40;99.90
41262;DHT22;29629;52.532;13.352;2023-02-15T00:44:06;4.40;99.90
41262;DHT22;29629;52.532;13.352;2023-02-15T00:46:33;4.40;99.90
41262;DHT22;29629;52.532;13.352;2023-02-15T00:49:00;4.40;99.90
41262;DHT22;29629;52.532;13.352;2023-02-15T00:51:27;4.40;99.90
41262;DHT22;29629;52.532;13.352;2023-02-15T00:53:53;4.40;99.90
41262;DHT22;29629;52.532;13.352;2023-02-15T00:56:20;4.40;99.90
41262;DHT22;29629;52.532;13.352;2023-02-15T00:58:48;4.30;99.90
41262;DHT22;29629;52.532;13.352;2023-02-15T01:01:16;4.30;99.90
41262;DHT22;29629;52.532;13.352;2023-02-15T01:03:43;4.30;99.90
41262;DHT22;29629;52.532;13.352;2023-02-15T01:06:12;4.30;99.90
41262;DHT22;29629;52.532;13.352;2023-02-15T01:08:39;4.30;99.90
41262;DHT22;29629;52.532;13.352;2023-02-15T01:11:06;4.30;99.90
41262;DHT22;29629;52.532;13.352;2023-02-15T01:13:33;4.20;99.90
41262;DHT22;29629;52.532;13.352;2023-02-15T01:16:01;4.30;99.90
41262;DHT22;29629;52.532;13.352;2023-02-15T01:18:28;4.20;99.90
41262;DHT22;29629;52.532;13.352;2023-02-15T01:20:55;4.30;99.90
41262;DHT22;29629;52.532;13.352;2023-02-15T01:23:22;4.30;99.90
41262;DHT22;29629;52.532;13.352;2023-02-15T01:25:49;4.30;99.90
41262;DHT22;29629;52.532;13.352;2023-02-15T01:28:16;4.30;99.90
41262;DHT22;29629;52.532;13.352;2023-02-15T01:30:42;4.30;99.90
41262;DHT22;29629;52.532;13.352;2023-02-15T01:33:11;4.20;99.90
41262;DHT22;29629;52.532;13.352;2023-02-15T01:35:43;4.30;99.90
41262;DHT22;29629;52.532;13.352;2023-02-15T01:38:10;4.30;99.90
41262;DHT22;29629;52.532;13.352;2023-02-15T01:40:37;4.30;99.90
41262;DHT22;29629;52.532;13.352;2023-02-15T01:43:07;4.20;99.90
41262;DHT22;29629;52.532;13.352;2023-02-15T01:45:35;4.20;99.90
41262;DHT22;29629;52.532;13.352;2023-02-15T01:48:03;4.20;99.90
41262;DHT22;29629;52.532;13.352;2023-02-15T01:50:32;4.20;99.90
41262;DHT22;29629;52.532;13.352;2023-02-15T01:53:01;4.20;99.90
41262;DHT22;29629;52.532;13.352;2023-02-15T01:55:30;4.30;99.90
41262;DHT22;29629;52.532;13.352;2023-02-15T01:57:59;4.20;99.90
41262;DHT22;29629;52.532;13.352;2023-02-15T02:00:26;4.20;99.90
41262;DHT22;29629;52.532;13.352;2023-02-15T02:03:07;4.10;99.90
41262;DHT22;29629;52.532;13.352;2023-02-15T02:05:36;4.10;99.90
41262;DHT22;29629;52.532;13.352;2023-02-15T02:08:04;4.10;99.90
41262;DHT22;29629;52.532;13.352;2023-02-15T02:10:31;4.20;99.90
41262;DHT22;29629;52.532;13.352;2023-02-15T02:12:58;4.10;99.90
41262;DHT22;29629;52.532;13.352;2023-02-15T02:15:27;4.10;99.90
41262;DHT22;29629;52.532;13.352;2023-02-15T02:18:00;4.00;99.90
41262;DHT22;29629;52.532;13.352;2023-02-15T02:20:52;4.10;99.90
41262;DHT22;29629;52.532;13.352;2023-02-15T02:23:25;4.10;99.90
41262;DHT22;29629;52.532;13.352;2023-02-15T02:29:06;4.00;99.90
41262;DHT22;29629;52.532;13.352;2023-02-15T02:31:43;4.00;99.90
41262;DHT22;29629;52.532;13.352;2023-02-15T02:34:12;4.00;99.90
41262;DHT22;29629;52.532;13.352;2023-02-15T02:36:44;4.00;99.90
41262;DHT22;29629;52.532;13.352;2023-02-15T02:39:16;4.00;99.90
41262;DHT22;29629;52.532;13.352;2023-02-15T02:41:49;4.00;99.90
41262;DHT22;29629;52.532;13.352;2023-02-15T02:44:18;3.90;99.90
41262;DHT22;29629;52.532;13.352;2023-02-15T02:46:50;4.00;99.90
41262;DHT22;29629;52.532;13.352;2023-02-15T02:49:20;3.90;99.90
41262;DHT22;29629;52.532;13.352;2023-02-15T02:51:57;3.90;99.90
41262;DHT22;29629;52.532;13.352;2023-02-15T02:54:24;3.90;99.90
41262;DHT22;29629;52.532;13.352;2023-02-15T02:56:50;3.90;99.90
41262;DHT22;29629;52.532;13.352;2023-02-15T02:59:18;3.90;99.90
41262;DHT22;29629;52.532;13.352;2023-02-15T03:01:46;3.90;99.90
41262;DHT22;29629;52.532;13.352;2023-02-15T03:04:15;3.90;99.90
41262;DHT22;29629;52.532;13.352;2023-02-15T03:06:46;3.80;99.90
41262;DHT22;29629;52.532;13.352;2023-02-15T03:09:15;3.80;99.90
41262;DHT22;29629;52.532;13.352;2023-02-15T03:11:43;3.90;99.90
41262;DHT22;29629;52.532;13.352;2023-02-15T03:14:10;3.70;99.90
41262;DHT22;29629;52.532;13.352;2023-02-15T03:16:39;3.80;99.90
41262;DHT22;29629;52.532;13.352;2023-02-15T03:19:07;3.70;99.90
41262;DHT22;29629;52.532;13.352;2023-02-15T03:21:35;3.80;99.90
41262;DHT22;29629;52.532;13.352;2023-02-15T03:24:07;3.70;99.90
41262;DHT22;29629;52.532;13.352;2023-02-15T03:26:34;3.70;99.90
41262;DHT22;29629;52.532;13.352;2023-02-15T03:29:02;3.60;99.90
41262;DHT22;29629;52.532;13.352;2023-02-15T03:31:30;3.70;99.90
41262;DHT22;29629;52.532;13.352;2023-02-15T03:33:59;3.60;99.90
41262;DHT22;29629;52.532;13.352;2023-02-15T03:36:28;3.60;99.90
41262;DHT22;29629;52.532;13.352;2023-02-15T03:38:59;3.50;99.90
41262;DHT22;29629;52.532;13.352;2023-02-15T03:41:31;3.50;99.90
41262;DHT22;29629;52.532;13.352;2023-02-15T03:44:00;3.50;99.90
41262;DHT22;29629;52.532;13.352;2023-02-15T03:46:30;3.50;99.90
41262;DHT22;29629;52.532;13.352;2023-02-15T03:49:00;3.40;99.90
41262;DHT22;29629;52.532;13.352;2023-02-15T03:51:29;3.40;99.90
41262;DHT22;29629;52.532;13.352;2023-02-15T03:54:00;3.40;99.90
41262;DHT22;29629;52.532;13.352;2023-02-15T03:56:27;3.30;99.90
41262;DHT22;29629;52.532;13.352;2023-02-15T03:58:55;3.40;99.90
41262;DHT22;29629;52.532;13.352;2023-02-15T04:01:40;3.30;99.90
41262;DHT22;29629;52.532;13.352;2023-02-15T04:04:27;3.30;99.90
41262;DHT22;29629;52.532;13.352;2023-02-15T04:06:54;3.20;99.90
41262;DHT22;29629;52.532;13.352;2023-02-15T04:09:21;3.20;99.90
41262;DHT22;29629;52.532;13.352;2023-02-15T04:12:11;3.10;99.90
41262;DHT22;29629;52.532;13.352;2023-02-15T04:14:39;3.20;99.90
41262;DHT22;29629;52.532;13.352;2023-02-15T04:17:23;3.10;99.90
41262;DHT22;29629;52.532;13.352;2023-02-15T04:19:50;3.10;99.90
41262;DHT22;29629;52.532;13.352;2023-02-15T04:22:34;3.10;99.90
41262;DHT22;29629;52.532;13.352;2023-02-15T04:25:18;3.10;99.90
41262;DHT22;29629;52.532;13.352;2023-02-15T04:27:46;3.10;99.90
41262;DHT22;29629;52.532;13.352;2023-02-15T04:30:15;3.00;99.90
41262;DHT22;29629;52.532;13.352;2023-02-15T04:32:42;3.00;99.90
41262;DHT22;29629;52.532;13.352;2023-02-15T04:35:09;3.00;99.90
41262;DHT22;29629;52.532;13.352;2023-02-15T04:37:36;3.00;99.90
41262;DHT22;29629;52.532;13.352;2023-02-15T04:40:03;3.00;99.90
41262;DHT22;29629;52.532;13.352;2023-02-15T04:42:30;2.90;99.90
41262;DHT22;29629;52.532;13.352;2023-02-15T04:44:57;2.90;99.90
41262;DHT22;29629;52.532;13.352;2023-02-15T04:47:25;2.80;99.90
41262;DHT22;29629;52.532;13.352;2023-02-15T04:49:52;2.80;99.90
41262;DHT22;29629;52.532;13.352;2023-02-15T04:52:18;2.70;99.90
41262;DHT22;29629;52.532;13.352;2023-02-15T04:54:45;2.70;99.90
41262;DHT22;29629;52.532;13.352;2023-02-15T04:57:12;2.60;99.90
41262;DHT22;29629;52.532;13.352;2023-02-15T04:59:39;2.60;99.90
41262;DHT22;29629;52.532;13.352;2023-02-15T05:02:06;2.60;99.90
41262;DHT22;29629;52.532;13.352;2023-02-15T05:04:34;2.50;99.90
41262;DHT22;29629;52.532;13.352;2023-02-15T05:07:00;2.50;99.90
41262;DHT22;29629;52.532;13.352;2023-02-15T05:09:27;2.50;99.90
41262;DHT22;29629;52.532;13.352;2023-02-15T05:11:54;2.60;99.90
41262;DHT22;29629;52.532;13.352;2023-02-15T05:14:20;2.40;99.90
41262;DHT22;29629;52.532;13.352;2023-02-15T05:16:48;2.40;99.90
41262;DHT22;29629;52.532;13.352;2023-02-15T05:19:14;2.40;99.90
41262;DHT22;29629;52.532;13.352;2023-02-15T05:21:42;2.40;99.90
41262;DHT22;29629;52.532;13.352;2023-02-15T05:24:09;2.40;99.90
41262;DHT22;29629;52.532;13.352;2023-02-15T05:26:50;2.40;99.90
41262;DHT22;29629;52.532;13.352;2023-02-15T05:29:34;2.30;99.90
41262;DHT22;29629;52.532;13.352;2023-02-15T05:32:00;2.30;99.90
41262;DHT22;29629;52.532;13.352;2023-02-15T05:34:27;2.30;99.90
41262;DHT22;29629;52.532;13.352;2023-02-15T05:36:55;2.30;99.90
41262;DHT22;29629;52.532;13.352;2023-02-15T05:39:22;2.30;99.90
41262;DHT22;29629;52.532;13.352;2023-02-15T05:41:49;2.30;99.90
41262;DHT22;29629;52.532;13.352;2023-02-15T05:44:15;2.20;99.90
41262;DHT22;29629;52.532;13.352;2023-02-15T05:46:42;2.20;99.90
41262;DHT22;29629;52.532;13.352;2023-02-15T05:49:09;2.10;99.90
41262;DHT22;29629;52.532;13.352;2023-02-15T05:51:35;2.10;99.90
41262;DHT22;29629;52.532;13.352;2023-02-15T05:54:04;2.10;99.90
41262;DHT22;29629;52.532;13.352;2023-02-15T05:56:30;2.10;99.90
41262;DHT22;29629;52.532;13.352;2023-02-15T05:58:57;2.00;99.90
41262;DHT22;29629;52.532;13.352;2023-02-15T06:01:24;2.00;99.90
41262;DHT22;29629;52.532;13.352;2023-02-15T06:03:50;2.00;99.90
41262;DHT22;29629;52.532;13.352;2023-02-15T06:06:17;2.00;99.90
41262;DHT22;29629;52.532;13.352;2023-02-15T06:08:44;2.00;99.90
41262;DHT22;29629;52.532;13.352;2023-02-15T06:11:12;1.90;99.90
41262;DHT22;29629;52.532;13.352;2023-02-15T06:13:39;1.90;99.90
41262;DHT22;29629;52.532;13.352;2023-02-15T06:16:06;1.90;99.90
41262;DHT22;29629;52.532;13.352;2023-02-15T06:18:32;1.90;99.90
41262;DHT22;29629;52.532;13.352;2023-02-15T06:20:59;1.90;99.90
41262;DHT22;29629;52.532;13.352;2023-02-15T06:23:26;1.90;99.90
41262;DHT22;29629;52.532;13.352;2023-02-15T06:25:53;1.90;99.90
41262;DHT22;29629;52.532;13.352;2023-02-15T06:28:21;2.00;99.90
41262;DHT22;29629;52.532;13.352;2023-02-15T06:30:48;1.90;99.90
41262;DHT22;29629;52.532;13.352;2023-02-15T06:33:14;1.90;99.90
41262;DHT22;29629;52.532;13.352;2023-02-15T06:35:41;1.90;99.90
41262;DHT22;29629;52.532;13.352;2023-02-15T06:38:08;1.90;99.90
41262;DHT22;29629;52.532;13.352;2023-02-15T06:40:35;2.00;99.90
41262;DHT22;29629;52.532;13.352;2023-02-15T06:43:01;1.90;99.90
41262;DHT22;29629;52.532;13.352;2023-02-15T06:45:30;1.90;99.90
41262;DHT22;29629;52.532;13.352;2023-02-15T06:47:56;2.00;99.90
41262;DHT22;29629;52.532;13.352;2023-02-15T06:50:23;1.90;99.90
41262;DHT22;29629;52.532;13.352;2023-02-15T06:52:52;2.00;99.90
41262;DHT22;29629;52.532;13.352;2023-02-15T06:55:21;1.90;99.90
41262;DHT22;29629;52.532;13.352;2023-02-15T06:57:48;1.90;99.90
41262;DHT22;29629;52.532;13.352;2023-02-15T07:00:14;1.90;99.90
41262;DHT22;29629;52.532;13.352;2023-02-15T07:02:44;2.00;99.90
41262;DHT22;29629;52.532;13.352;2023-02-15T07:05:11;2.00;99.90
41262;DHT22;29629;52.532;13.352;2023-02-15T07:07:37;2.00;99.90
41262;DHT22;29629;52.532;13.352;2023-02-15T07:10:04;2.20;99.90
41262;DHT22;29629;52.532;13.352;2023-02-15T07:12:31;2.10;99.90
41262;DHT22;29629;52.532;13.352;2023-02-15T07:15:11;2.20;99.90
41262;DHT22;29629;52.532;13.352;2023-02-15T07:17:38;2.10;99.90
41262;DHT22;29629;52.532;13.352;2023-02-15T07:20:09;2.10;99.90
41262;DHT22;29629;52.532;13.352;2023-02-15T07:22:36;2.10;99.90
41262;DHT22;29629;52.532;13.352;2023-02-15T07:25:03;2.20;99.90
41262;DHT22;29629;52.532;13.352;2023-02-15T07:27:30;2.10;99.90
41262;DHT22;29629;52.532;13.352;2023-02-15T07:29:57;2.10;99.90
41262;DHT22;29629;52.532;13.352;2023-02-15T07:32:23;2.00;99.90
41262;DHT22;29629;52.532;13.352;2023-02-15T07:34:53;2.00;99.90
41262;DHT22;29629;52.532;13.352;2023-02-15T07:37:21;2.00;99.90
41262;DHT22;29629;52.532;13.352;2023-02-15T07:39:48;2.20;99.90
41262;DHT22;29629;52.532;13.352;2023-02-15T07:42:14;2.10;99.90
41262;DHT22;29629;52.532;13.352;2023-02-15T07:44:41;2.10;99.90
41262;DHT22;29629;52.532;13.352;2023-02-15T07:47:08;2.10;99.90
41262;DHT22;29629;52.532;13.352;2023-02-15T07:49:34;2.10;99.90
41262;DHT22;29629;52.532;13.352;2023-02-15T07:52:01;2.20;99.90
41262;DHT22;29629;52.532;13.352;2023-02-15T07:54:29;2.20;99.90
41262;DHT22;29629;52.532;13.352;2023-02-15T07:56:56;2.20;99.90
41262;DHT22;29629;52.532;13.352;2023-02-15T07:59:22;2.30;99.90
41262;DHT22;29629;52.532;13.352;2023-02-15T08:01:49;2.30;99.90
41262;DHT22;29629;52.532;13.352;2023-02-15T08:04:18;2.20;99.90
41262;DHT22;29629;52.532;13.352;2023-02-15T08:06:44;2.20;99.90
41262;DHT22;29629;52.532;13.352;2023-02-15T08:09:11;2.20;99.90
41262;DHT22;29629;52.532;13.352;2023-02-15T08:11:39;2.20;99.90
41262;DHT22;29629;52.532;13.352;2023-02-15T08:14:07;2.20;99.90
41262;DHT22;29629;52.532;13.352;2023-02-15T08:16:35;2.20;99.90
41262;DHT22;29629;52.532;13.352;2023-02-15T08:19:02;2.20;99.90
41262;DHT22;29629;52.532;13.352;2023-02-15T08:21:30;2.20;99.90
41262;DHT22;29629;52.532;13.352;2023-02-15T08:23:57;2.20;99.90
41262;DHT22;29629;52.532;13.352;2023-02-15T08:26:24;2.30;99.90
41262;DHT22;29629;52.532;13.352;2023-02-15T08:28:53;2.20;99.90
41262;DHT22;29629;52.532;13.352;2023-02-15T08:31:20;2.30;99.90
41262;DHT22;29629;52.532;13.352;2023-02-15T08:33:47;2.40;99.90
41262;DHT22;29629;52.532;13.352;2023-02-15T08:36:15;2.40;99.90
41262;DHT22;29629;52.532;13.352;2023-02-15T08:38:43;2.70;99.90
41262;DHT22;29629;52.532;13.352;2023-02-15T08:41:13;2.60;99.90
41262;DHT22;29629;52.532;13.352;2023-02-15T08:43:40;2.60;99.90
41262;DHT22;29629;52.532;13.352;2023-02-15T08:46:09;2.60;99.90
41262;DHT22;29629;52.532;13.352;2023-02-15T08:48:36;2.40;99.90
41262;DHT22;29629;52.532;13.352;2023-02-15T08:51:06;2.50;99.90
41262;DHT22;29629;52.532;13.352;2023-02-15T08:53:33;2.50;99.90
41262;DHT22;29629;52.532;13.352;2023-02-15T08:56:00;2.50;99.90
41262;DHT22;29629;52.532;13.352;2023-02-15T08:58:28;2.40;99.90
41262;DHT22;29629;52.532;13.352;2023-02-15T09:00:54;2.70;99.90
41262;DHT22;29629;52.532;13.352;2023-02-15T09:03:23;2.60;99.90
41262;DHT22;29629;52.532;13.352;2023-02-15T09:05:49;2.80;99.90
41262;DHT22;29629;52.532;13.352;2023-02-15T09:08:16;2.80;99.90
41262;DHT22;29629;52.532;13.352;2023-02-15T09:10:43;2.90;99.90
41262;DHT22;29629;52.532;13.352;2023-02-15T09:13:09;3.00;99.90
41262;DHT22;29629;52.532;13.352;2023-02-15T09:15:36;3.00;99.90
41262;DHT22;29629;52.532;13.352;2023-02-15T09:18:03;3.00;99.90
41262;DHT22;29629;52.532;13.352;2023-02-15T09:20:33;3.00;99.90
41262;DHT22;29629;52.532;13.352;2023-02-15T09:23:01;3.10;99.90
41262;DHT22;29629;52.532;13.352;2023-02-15T09:25:28;3.10;99.90
41262;DHT22;29629;52.532;13.352;2023-02-15T09:27:54;3.20;99.90
41262;DHT22;29629;52.532;13.352;2023-02-15T09:30:21;3.30;99.90
41262;DHT22;29629;52.532;13.352;2023-02-15T09:32:48;3.30;99.90
41262;DHT22;29629;52.532;13.352;2023-02-15T09:35:14;3.40;99.90
41262;DHT22;29629;52.532;13.352;2023-02-15T09:37:42;3.50;99.90
41262;DHT22;29629;52.532;13.352;2023-02-15T09:40:10;3.50;99.90
41262;DHT22;29629;52.532;13.352;2023-02-15T09:45:27;3.50;99.90
41262;DHT22;29629;52.532;13.352;2023-02-15T09:48:06;3.60;99.90
41262;DHT22;29629;52.532;13.352;2023-02-15T09:50:38;3.60;99.90
41262;DHT22;29629;52.532;13.352;2023-02-15T09:53:18;3.70;99.90
41262;DHT22;29629;52.532;13.352;2023-02-15T09:55:51;3.80;99.90
41262;DHT22;29629;52.532;13.352;2023-02-15T09:58:22;3.90;99.90
41262;DHT22;29629;52.532;13.352;2023-02-15T10:00:52;3.90;99.90
41262;DHT22;29629;52.532;13.352;2023-02-15T10:03:26;4.00;99.90
41262;DHT22;29629;52.532;13.352;2023-02-15T10:05:59;4.10;99.90
41262;DHT22;29629;52.532;13.352;2023-02-15T10:08:45;4.20;99.90
41262;DHT22;29629;52.532;13.352;2023-02-15T10:11:15;4.40;99.90
41262;DHT22;29629;52.532;13.352;2023-02-15T10:14:08;4.50;99.90
41262;DHT22;29629;52.532;13.352;2023-02-15T10:16:40;4.80;99.90
41262;DHT22;29629;52.532;13.352;2023-02-15T10:19:08;4.90;99.90
41262;DHT22;29629;52.532;13.352;2023-02-15T10:21:39;4.80;99.90
41262;DHT22;29629;52.532;13.352;2023-02-15T10:24:15;5.20;99.90
41262;DHT22;29629;52.532;13.352;2023-02-15T10:26:44;5.50;99.90
41262;DHT22;29629;52.532;13.352;2023-02-15T10:29:13;6.00;99.90
41262;DHT22;29629;52.532;13.352;2023-02-15T10:31:46;6.20;99.90
41262;DHT22;29629;52.532;13.352;2023-02-15T10:34:17;6.20;99.90
41262;DHT22;29629;52.532;13.352;2023-02-15T10:36:49;6.20;99.90
41262;DHT22;29629;52.532;13.352;2023-02-15T10:39:21;6.40;99.90
41262;DHT22;29629;52.532;13.352;2023-02-15T10:41:53;6.70;99.90
41262;DHT22;29629;52.532;13.352;2023-02-15T10:44:32;6.90;99.90
41262;DHT22;29629;52.532;13.352;2023-02-15T10:47:10;6.90;99.90
41262;DHT22;29629;52.532;13.352;2023-02-15T10:49:43;7.10;99.90
41262;DHT22;29629;52.532;13.352;2023-02-15T10:52:19;7.30;99.90
41262;DHT22;29629;52.532;13.352;2023-02-15T10:54:51;7.50;99.90
41262;DHT22;29629;52.532;13.352;2023-02-15T10:57:22;8.00;99.90
41262;DHT22;29629;52.532;13.352;2023-02-15T11:00:05;8.30;99.90
41262;DHT22;29629;52.532;13.352;2023-02-15T11:02:42;8.80;99.90
41262;DHT22;29629;52.532;13.352;2023-02-15T11:05:20;9.00;99.90
41262;DHT22;29629;52.532;13.352;2023-02-15T11:07:52;9.40;99.90
41262;DHT22;29629;52.532;13.352;2023-02-15T11:10:24;9.80;99.90
41262;DHT22;29629;52.532;13.352;2023-02-15T11:12:54;10.20;99.90
41262;DHT22;29629;52.532;13.352;2023-02-15T11:15:24;10.50;99.90
41262;DHT22;29629;52.532;13.352;2023-02-15T11:17:54;11.00;99.90
41262;DHT22;29629;52.532;13.352;2023-02-15T11:20:23;11.40;99.90
41262;DHT22;29629;52.532;13.352;2023-02-15T11:22:51;11.80;99.90
41262;DHT22;29629;52.532;13.352;2023-02-15T11:25:19;12.20;99.90
41262;DHT22;29629;52.532;13.352;2023-02-15T11:27:48;13.00;99.90
41262;DHT22;29629;52.532;13.352;2023-02-15T11:30:18;13.70;99.90
41262;DHT22;29629;52.532;13.352;2023-02-15T11:32:46;14.40;99.90
41262;DHT22;29629;52.532;13.352;2023-02-15T11:35:18;14.80;99.90
41262;DHT22;29629;52.532;13.352;2023-02-15T11:37:46;15.00;99.90
41262;DHT22;29629;52.532;13.352;2023-02-15T11:40:17;15.10;99.90
41262;DHT22;29629;52.532;13.352;2023-02-15T11:42:46;15.40;99.90
41262;DHT22;29629;52.532;13.352;2023-02-15T11:45:19;15.40;99.90
41262;DHT22;29629;52.532;13.352;2023-02-15T11:47:47;15.50;99.90
41262;DHT22;29629;52.532;13.352;2023-02-15T11:50:14;15.40;99.90
41262;DHT22;29629;52.532;13.352;2023-02-15T11:52:43;14.80;99.90
41262;DHT22;29629;52.532;13.352;2023-02-15T11:55:11;14.20;99.90
41262;DHT22;29629;52.532;13.352;2023-02-15T11:57:40;14.30;99.90
41262;DHT22;29629;52.532;13.352;2023-02-15T12:00:10;13.50;99.90
41262;DHT22;29629;52.532;13.352;2023-02-15T12:02:41;14.20;99.90
41262;DHT22;29629;52.532;13.352;2023-02-15T12:05:12;14.60;99.90
41262;DHT22;29629;52.532;13.352;2023-02-15T12:07:44;14.60;99.90
41262;DHT22;29629;52.532;13.352;2023-02-15T12:10:18;14.60;99.90
41262;DHT22;29629;52.532;13.352;2023-02-15T12:12:46;14.50;99.90
41262;DHT22;29629;52.532;13.352;2023-02-15T12:15:15;15.10;99.90
41262;DHT22;29629;52.532;13.352;2023-02-15T12:17:57;15.40;99.90
41262;DHT22;29629;52.532;13.352;2023-02-15T12:20:24;15.70;99.90
41262;DHT22;29629;52.532;13.352;2023-02-15T12:22:55;15.50;99.90
41262;DHT22;29629;52.532;13.352;2023-02-15T12:25:29;15.40;99.90
41262;DHT22;29629;52.532;13.352;2023-02-15T12:27:59;15.80;99.90
41262;DHT22;29629;52.532;13.352;2023-02-15T12:30:28;15.60;99.90
41262;DHT22;29629;52.532;13.352;2023-02-15T12:32:58;15.80;99.90
41262;DHT22;29629;52.532;13.352;2023-02-15T12:35:27;15.90;99.90
41262;DHT22;29629;52.532;13.352;2023-02-15T12:37:55;15.40;99.90
41262;DHT22;29629;52.532;13.352;2023-02-15T12:40:24;15.20;99.90
41262;DHT22;29629;52.532;13.352;2023-02-15T12:42:53;15.30;99.90
41262;DHT22;29629;52.532;13.352;2023-02-15T12:45:21;15.70;99.90
41262;DHT22;29629;52.532;13.352;2023-02-15T12:47:53;15.70;99.90
41262;DHT22;29629;52.532;13.352;2023-02-15T12:50:36;15.70;99.90
41262;DHT22;29629;52.532;13.352;2023-02-15T12:53:06;15.90;99.90
41262;DHT22;29629;52.532;13.352;2023-02-15T12:55:34;15.70;99.90
41262;DHT22;29629;52.532;13.352;2023-02-15T12:58:07;15.80;99.90
41262;DHT22;29629;52.532;13.352;2023-02-15T13:00:34;15.70;99.90
41262;DHT22;29629;52.532;13.352;2023-02-15T13:03:00;15.60;99.90
41262;DHT22;29629;52.532;13.352;2023-02-15T13:05:30;15.30;99.90
41262;DHT22;29629;52.532;13.352;2023-02-15T13:07:59;15.30;99.90
41262;DHT22;29629;52.532;13.352;2023-02-15T13:10:28;14.50;99.90
41262;DHT22;29629;52.532;13.352;2023-02-15T13:12:55;14.50;99.90
41262;DHT22;29629;52.532;13.352;2023-02-15T13:15:27;14.40;99.90
41262;DHT22;29629;52.532;13.352;2023-02-15T13:17:55;13.40;99.90
41262;DHT22;29629;52.532;13.352;2023-02-15T13:20:22;13.40;99.90
41262;DHT22;29629;52.532;13.352;2023-02-15T13:22:50;13.60;99.90
41262;DHT22;29629;52.532;13.352;2023-02-15T13:25:19;13.40;99.90
41262;DHT22;29629;52.532;13.352;2023-02-15T13:27:47;12.70;99.90
41262;DHT22;29629;52.532;13.352;2023-02-15T13:33:02;12.40;99.90
41262;DHT22;29629;52.532;13.352;2023-02-15T13:35:33;12.20;99.90
41262;DHT22;29629;52.532;13.352;2023-02-15T13:38:06;12.30;99.90
41262;DHT22;29629;52.532;13.352;2023-02-15T13:40:37;12.20;99.90
41262;DHT22;29629;52.532;13.352;2023-02-15T13:43:05;12.20;99.90
41262;DHT22;29629;52.532;13.352;2023-02-15T13:45:39;12.10;99.90
41262;DHT22;29629;52.532;13.352;2023-02-15T13:48:10;12.00;99.90
41262;DHT22;29629;52.532;13.352;2023-02-15T13:50:44;11.90;99.90
41262;DHT22;29629;52.532;13.352;2023-02-15T13:56:02;11.60;99.90
41262;DHT22;29629;52.532;13.352;2023-02-15T14:01:31;11.40;99.90
41262;DHT22;29629;52.532;13.352;2023-02-15T14:04:08;11.20;99.90
41262;DHT22;29629;52.532;13.352;2023-02-15T14:06:41;11.10;99.90
41262;DHT22;29629;52.532;13.352;2023-02-15T14:09:15;10.90;99.90
41262;DHT22;29629;52.532;13.352;2023-02-15T14:11:48;10.90;99.90
41262;DHT22;29629;52.532;13.352;2023-02-15T14:14:24;10.90;99.90
41262;DHT22;29629;52.532;13.352;2023-02-15T14:16:57;11.00;99.90
41262;DHT22;29629;52.532;13.352;2023-02-15T14:19:29;11.00;99.90
41262;DHT22;29629;52.532;13.352;2023-02-15T14:21:58;10.80;99.90
41262;DHT22;29629;52.532;13.352;2023-02-15T14:24:29;10.90;99.90
41262;DHT22;29629;52.532;13.352;2023-02-15T14:27:04;10.90;99.90
41262;DHT22;29629;52.532;13.352;2023-02-15T14:29:39;10.90;99.90
41262;DHT22;29629;52.532;13.352;2023-02-15T14:32:08;10.70;99.90
41262;DHT22;29629;52.532;13.352;2023-02-15T14:34:40;10.80;99.90
41262;DHT22;29629;52.532;13.352;2023-02-15T14:37:08;10.80;99.90
41262;DHT22;29629;52.532;13.352;2023-02-15T14:39:40;10.80;99.90
41262;DHT22;29629;52.532;13.352;2023-02-15T14:42:28;10.70;99.90
41262;DHT22;29629;52.532;13.352;2023-02-15T14:45:00;10.60;99.90
41262;DHT22;29629;52.532;13.352;2023-02-15T14:47:30;10.60;99.90
41262;DHT22;29629;52.532;13.352;2023-02-15T14:50:14;10.50;99.90
41262;DHT22;29629;52.532;13.352;2023-02-15T14:53:14;10.50;99.90
41262;DHT22;29629;52.532;13.352;2023-02-15T14:55:41;10.50;99.90
41262;DHT22;29629;52.532;13.352;2023-02-15T14:58:13;10.40;99.90
41262;DHT22;29629;52.532;13.352;2023-02-15T15:00:40;10.40;99.90
41262;DHT22;29629;52.532;13.352;2023-02-15T15:03:19;10.40;99.90
41262;DHT22;29629;52.532;13.352;2023-02-15T15:05:50;10.40;99.90
41262;DHT22;29629;52.532;13.352;2023-02-15T15:08:22;10.30;99.90
41262;DHT22;29629;52.532;13.352;2023-02-15T15:10:49;10.30;99.90
41262;DHT22;29629;52.532;13.352;2023-02-15T15:16:25;10.30;99.90
41262;DHT22;29629;52.532;13.352;2023-02-15T15:18:52;10.30;99.90
41262;DHT22;29629;52.532;13.352;2023-02-15T15:24:00;10.10;99.90
41262;DHT22;29629;52.532;13.352;2023-02-15T15:26:29;10.10;99.90
41262;DHT22;29629;52.532;13.352;2023-02-15T15:29:02;10.10;99.90
41262;DHT22;29629;52.532;13.352;2023-02-15T15:31:36;10.10;99.90
41262;DHT22;29629;52.532;13.352;2023-02-15T15:42:31;10.00;99.90
41262;DHT22;29629;52.532;13.352;2023-02-15T15:45:02;10.00;99.90
41262;DHT22;29629;52.532;13.352;2023-02-15T15:50:18;9.90;99.90
41262;DHT22;29629;52.532;13.352;2023-02-15T15:52:46;9.90;99.90
41262;DHT22;29629;52.532;13.352;2023-02-15T15:55:14;9.80;99.90
41262;DHT22;29629;52.532;13.352;2023-02-15T15:57:42;9.80;99.90
41262;DHT22;29629;52.532;13.352;2023-02-15T16:00:22;9.80;99.90
41262;DHT22;29629;52.532;13.352;2023-02-15T16:02:49;9.80;99.90
41262;DHT22;29629;52.532;13.352;2023-02-15T16:05:17;9.70;99.90
41262;DHT22;29629;52.532;13.352;2023-02-15T16:07:45;9.70;99.90
41262;DHT22;29629;52.532;13.352;2023-02-15T16:10:19;9.70;99.90
41262;DHT22;29629;52.532;13.352;2023-02-15T16:12:46;9.60;99.90
41262;DHT22;29629;52.532;13.352;2023-02-15T16:15:14;9.60;99.90